Lawrence, New York
Current Conditions -  °F | °C
As of 6:51 PM on Friday 21 Nov 2014 (Local Time) from KJFK Reporting Station
Clear Clear  
Wind Chill: 23°   Ceiling: Unl
Heat Index: 33°   Visibility: 10mi
Dew Point:   Wind: 15mph
Humidity: 34%   Direction: 320°NW
Pressure: 30.48"   Gusts: NA
Location:  40.61°N, 73.74°W
Report Text: KJFK 212351Z 32013KT 10SM CLR 01/M14 A3048 RMK AO2 SLP321 T00061139 10033 20006 51036
Loading
Personal Weather Stations






























Interactive Weather Map New forecast layout! Learn more

10-Day Weather Forecast

Advertisements
Track Severe Weather on mobile